Time;durP1;ratioP1;P1;durP2;ratioP2;P2;SDS_P1;SDS_P2;PMS_P1;PMS_P2;Temp;Humidity;BMP_temperature;BMP_pressure;BME280_temperature;BME280_humidity;BME280_pressure;Samples;Min_cycle;Max_cycle;Signal;HPM_P1;HPM_P2
2023/12/31 00:00:43;;;;;;;2.50;2.30;;;;;;;12.42;62.08;100467.09;4955097;28;97442;-73
2023/12/31 00:03:09;;;;;;;2.75;2.30;;;;;;;12.41;62.32;100473.47;4961141;28;98800;-74
2023/12/31 00:05:37;;;;;;;3.70;2.20;;;;;;;12.41;61.95;100468.09;4960406;28;97353;-74
2023/12/31 00:08:03;;;;;;;3.50;2.20;;;;;;;12.38;62.39;100462.97;4961305;28;98253;-74
2023/12/31 00:10:30;;;;;;;4.20;2.80;;;;;;;12.39;62.27;100459.28;4961266;28;97937;-73
2023/12/31 00:12:57;;;;;;;4.22;1.85;;;;;;;12.38;62.21;100454.88;4962485;28;96978;-73
2023/12/31 00:15:23;;;;;;;3.92;2.10;;;;;;;12.39;62.39;100448.50;4960689;28;97101;-74
2023/12/31 00:17:50;;;;;;;2.67;1.60;;;;;;;12.37;62.27;100440.56;4959820;28;97982;-74
2023/12/31 00:20:17;;;;;;;4.03;2.13;;;;;;;12.38;62.25;100425.25;4950961;28;99354;-74
2023/12/31 00:22:43;;;;;;;4.40;2.10;;;;;;;12.38;62.18;100420.72;4961403;28;96870;-75
2023/12/31 00:25:10;;;;;;;3.05;1.90;;;;;;;12.39;62.34;100421.59;4960774;28;97736;-74
2023/12/31 00:27:38;;;;;;;2.80;1.48;;;;;;;12.40;62.47;100416.06;4961290;28;98308;-75
2023/12/31 00:30:05;;;;;;;4.22;1.83;;;;;;;12.42;62.00;100410.53;4940249;28;100019;-73
2023/12/31 00:32:32;;;;;;;2.33;1.40;;;;;;;12.45;62.15;100406.75;4960478;28;97399;-73
2023/12/31 00:35:00;;;;;;;2.25;1.60;;;;;;;12.46;62.17;100401.22;4961540;28;97127;-74
2023/12/31 00:37:28;;;;;;;2.58;1.25;;;;;;;12.48;61.94;100396.56;4945807;28;99835;-77
2023/12/31 00:39:55;;;;;;;1.88;1.42;;;;;;;12.51;62.08;100390.03;4961065;28;97735;-74
2023/12/31 00:42:22;;;;;;;2.05;1.33;;;;;;;12.53;62.04;100396.16;4960455;28;98321;-74
2023/12/31 00:44:48;;;;;;;2.67;1.20;;;;;;;12.53;61.63;100388.94;4962490;28;97354;-74
2023/12/31 00:47:15;;;;;;;1.75;1.17;;;;;;;12.55;62.00;100383.41;4957326;28;100575;-74
2023/12/31 00:49:42;;;;;;;2.30;1.30;;;;;;;12.57;61.71;100371.50;4959098;28;98088;-73
2023/12/31 00:52:08;;;;;;;6.43;2.00;;;;;;;12.60;61.88;100370.41;4961005;28;96957;-74
2023/12/31 00:54:35;;;;;;;1.50;1.10;;;;;;;12.62;61.57;100373.81;4964990;28;98092;-75
2023/12/31 00:57:02;;;;;;;1.45;1.08;;;;;;;12.63;61.51;100359.34;4961540;28;97881;-75
2023/12/31 00:59:30;;;;;;;2.30;1.02;;;;;;;12.63;61.37;100352.16;4957421;28;98640;-74
2023/12/31 01:01:56;;;;;;;2.25;1.15;;;;;;;12.64;61.38;100335.00;4943333;28;97182;-75
2023/12/31 01:04:23;;;;;;;2.15;1.10;;;;;;;12.65;61.67;100336.72;4958365;28;97260;-74
2023/12/31 01:06:50;;;;;;;2.08;1.20;;;;;;;12.66;61.30;100334.88;4962385;28;98793;-74
2023/12/31 01:09:17;;;;;;;1.52;1.00;;;;;;;12.67;61.14;100329.34;4958706;28;98387;-74
2023/12/31 01:11:43;;;;;;;1.23;0.90;;;;;;;12.68;61.14;100322.13;4960768;28;97224;-74
2023/12/31 01:14:10;;;;;;;2.30;1.17;;;;;;;12.69;61.24;100321.13;4989821;28;97008;-73
2023/12/31 01:16:37;;;;;;;1.63;1.10;;;;;;;12.70;61.18;100306.66;4959012;28;100030;-73
2023/12/31 01:19:04;;;;;;;1.65;1.10;;;;;;;12.70;61.01;100315.59;4979708;28;99764;-74
2023/12/31 01:21:31;;;;;;;2.30;1.08;;;;;;;12.70;60.89;100312.91;4969106;28;97267;-73
2023/12/31 01:23:59;;;;;;;1.58;1.08;;;;;;;12.71;60.89;100309.22;4958960;28;98281;-73
2023/12/31 01:26:25;;;;;;;1.83;1.25;;;;;;;12.71;60.88;100298.44;4960673;28;97516;-75
2023/12/31 01:28:52;;;;;;;3.67;1.45;;;;;;;12.71;60.93;100293.06;4957179;28;98057;-75
2023/12/31 01:31:19;;;;;;;2.58;1.45;;;;;;;12.72;60.76;100292.06;4970672;28;97215;-74
2023/12/31 01:33:46;;;;;;;1.80;1.30;;;;;;;12.73;60.51;100292.91;4949825;28;97369;-74
2023/12/31 01:36:17;;;;;;;2.47;1.20;;;;;;;12.73;60.65;100283.00;4959437;28;100328;-73
2023/12/31 01:38:44;;;;;;;2.22;1.33;;;;;;;12.75;60.42;100282.00;4959820;28;98127;-75
2023/12/31 01:41:12;;;;;;;2.03;1.00;;;;;;;12.74;60.65;100281.16;4945599;28;97333;-74
2023/12/31 01:43:39;;;;;;;1.45;1.02;;;;;;;12.76;60.30;100278.31;4961812;28;97333;-74
2023/12/31 01:46:08;;;;;;;1.27;1.10;;;;;;;12.77;60.38;100271.94;4961890;28;97763;-74
2023/12/31 01:48:35;;;;;;;1.88;1.30;;;;;;;12.77;60.18;100270.09;4958094;28;98013;-74
2023/12/31 01:51:03;;;;;;;2.17;1.17;;;;;;;12.79;60.03;100259.19;4960933;28;97395;-76
2023/12/31 01:53:31;;;;;;;1.30;1.00;;;;;;;12.81;60.22;100259.91;4958452;28;97248;-74
2023/12/31 01:55:58;;;;;;;2.80;1.20;;;;;;;12.83;60.29;100263.31;4962398;28;100252;-74
2023/12/31 01:58:26;;;;;;;2.17;1.10;;;;;;;12.83;59.78;100252.53;4960745;28;99839;-75
2023/12/31 02:00:53;;;;;;;1.40;1.10;;;;;;;12.84;59.76;100251.53;4955394;28;97313;-74
2023/12/31 02:03:19;;;;;;;1.75;1.17;;;;;;;12.85;59.68;100243.31;4978443;28;97428;-74
2023/12/31 02:05:47;;;;;;;4.18;1.20;;;;;;;12.85;59.55;100245.16;4943931;28;98095;-75
2023/12/31 02:08:14;;;;;;;1.92;1.35;;;;;;;12.84;59.65;100243.47;4963358;28;98026;-74
2023/12/31 02:10:41;;;;;;;2.08;1.10;;;;;;;12.85;59.85;100232.53;4945678;28;97216;-75
2023/12/31 02:13:08;;;;;;;2.60;1.10;;;;;;;12.86;59.59;100231.56;4974209;28;97257;-74
2023/12/31 02:15:34;;;;;;;2.13;1.25;;;;;;;12.87;59.43;100216.22;4949567;28;100075;-74
2023/12/31 02:18:02;;;;;;;3.63;1.42;;;;;;;12.87;59.60;100210.84;4963795;28;98271;-74
2023/12/31 02:20:30;;;;;;;1.25;0.95;;;;;;;12.89;59.20;100198.94;4963139;28;97261;-73
2023/12/31 02:22:58;;;;;;;3.22;1.45;;;;;;;12.90;59.28;100203.34;4967988;28;97442;-74
2023/12/31 02:25:27;;;;;;;2.22;1.08;;;;;;;12.91;59.14;100201.50;4964406;28;97708;-74
2023/12/31 02:27:55;;;;;;;4.40;1.40;;;;;;;12.90;58.77;100189.00;4962737;28;97856;-74
2023/12/31 02:30:23;;;;;;;2.63;1.25;;;;;;;12.90;59.30;100186.31;4945980;28;98171;-75
2023/12/31 02:32:49;;;;;;;2.22;1.40;;;;;;;12.88;59.11;100183.75;4954889;28;98615;-73
2023/12/31 02:35:17;;;;;;;1.95;1.20;;;;;;;12.87;58.89;100175.81;4962183;28;98090;-73
2023/12/31 02:37:43;;;;;;;2.45;1.08;;;;;;;12.86;59.24;100177.66;4960605;28;98305;-73
2023/12/31 02:40:10;;;;;;;2.17;1.20;;;;;;;12.86;58.86;100164.19;4960139;28;97049;-75
2023/12/31 02:42:37;;;;;;;1.77;1.10;;;;;;;12.85;58.92;100154.41;4962231;28;96994;-73
2023/12/31 02:45:04;;;;;;;1.42;1.30;;;;;;;12.86;58.62;100164.19;4960295;28;98011;-74
2023/12/31 02:47:31;;;;;;;2.58;1.40;;;;;;;12.86;58.64;100153.41;4962511;28;97993;-73
2023/12/31 02:49:57;;;;;;;3.20;1.30;;;;;;;12.87;58.88;100151.56;4961541;28;97604;-74
2023/12/31 02:52:24;;;;;;;1.60;1.10;;;;;;;12.85;58.95;100143.63;4962923;28;98329;-75
2023/12/31 02:54:51;;;;;;;2.22;1.30;;;;;;;12.86;58.66;100147.16;4959935;28;98113;-74
2023/12/31 02:57:18;;;;;;;1.65;1.13;;;;;;;12.84;58.47;100136.53;4959328;28;97707;-73
2023/12/31 02:59:45;;;;;;;1.58;1.00;;;;;;;12.83;58.57;100123.19;4963224;28;97456;-74
2023/12/31 03:02:13;;;;;;;1.73;1.30;;;;;;;12.82;58.35;100103.47;4960289;28;97262;-74
2023/12/31 03:04:40;;;;;;;4.40;1.60;;;;;;;12.82;58.28;100106.19;4963503;28;97495;-73
2023/12/31 03:07:08;;;;;;;1.45;1.35;;;;;;;12.82;58.43;100108.00;4962863;28;97486;-75
2023/12/31 03:09:35;;;;;;;2.70;1.60;;;;;;;12.81;58.50;100100.94;4960066;28;97442;-75
2023/12/31 03:12:02;;;;;;;2.03;1.13;;;;;;;12.78;58.53;100096.66;4961403;28;97180;-73
2023/12/31 03:14:28;;;;;;;3.70;1.88;;;;;;;12.77;58.45;100091.41;4961260;28;97625;-74
2023/12/31 03:16:57;;;;;;;2.78;1.33;;;;;;;12.76;58.58;100095.09;4966718;28;97561;-75
2023/12/31 03:19:24;;;;;;;1.45;1.20;;;;;;;12.77;58.45;100086.03;4960701;28;96939;-73
2023/12/31 03:21:51;;;;;;;2.47;1.40;;;;;;;12.75;58.47;100079.94;4959099;28;97403;-74
2023/12/31 03:24:20;;;;;;;2.08;1.40;;;;;;;12.75;58.64;100061.94;4960903;28;97634;-75
2023/12/31 03:26:47;;;;;;;2.45;1.58;;;;;;;12.76;58.56;100068.16;4986662;28;98762;-74
2023/12/31 03:29:13;;;;;;;1.75;1.40;;;;;;;12.76;58.87;100063.63;4962827;28;97162;-74
2023/12/31 03:31:40;;;;;;;2.75;1.30;;;;;;;12.73;58.39;100058.53;4962248;28;97041;-73
2023/12/31 03:34:07;;;;;;;2.00;1.40;;;;;;;12.73;58.46;100059.38;4961862;28;98198;-74
2023/12/31 03:36:34;;;;;;;2.85;1.70;;;;;;;12.71;58.31;100050.59;4960642;28;98675;-75
2023/12/31 03:39:01;;;;;;;4.25;1.55;;;;;;;12.72;58.54;100043.34;4963164;28;97272;-74
2023/12/31 03:41:28;;;;;;;2.28;1.60;;;;;;;12.71;58.38;100041.66;4961992;28;96936;-74
2023/12/31 03:43:54;;;;;;;1.83;1.60;;;;;;;12.70;58.20;100024.63;4960882;28;98758;-75
2023/12/31 03:46:21;;;;;;;3.42;1.90;;;;;;;12.69;58.38;100022.94;4971748;28;97649;-73
2023/12/31 03:48:48;;;;;;;2.63;1.52;;;;;;;12.69;58.27;100012.16;4959413;28;97526;-73
2023/12/31 03:51:15;;;;;;;2.22;1.50;;;;;;;12.69;58.23;99997.84;4944759;28;98168;-74
2023/12/31 03:53:41;;;;;;;2.55;1.38;;;;;;;12.66;58.39;99998.97;4959545;28;99765;-73
2023/12/31 03:56:08;;;;;;;2.50;1.50;;;;;;;12.65;58.45;99997.28;4964951;28;100186;-73
2023/12/31 03:58:35;;;;;;;2.20;1.15;;;;;;;12.65;58.16;99980.25;4964466;28;96985;-74
2023/12/31 04:01:03;;;;;;;3.95;1.52;;;;;;;12.63;58.18;99975.03;4961923;28;97425;-75
2023/12/31 04:03:31;;;;;;;3.00;1.50;;;;;;;12.63;58.06;99974.13;4960282;28;97197;-73
2023/12/31 04:05:57;;;;;;;3.25;1.60;;;;;;;12.62;58.08;99965.22;4960706;28;97466;-73
2023/12/31 04:08:24;;;;;;;2.20;1.40;;;;;;;12.61;58.03;99955.44;4988366;28;96985;-75
2023/12/31 04:10:51;;;;;;;1.65;1.55;;;;;;;12.60;58.14;99953.72;4984597;28;97160;-75
2023/12/31 04:13:18;;;;;;;2.67;1.58;;;;;;;12.60;58.01;99940.25;4961285;28;98035;-73
2023/12/31 04:15:45;;;;;;;1.40;1.08;;;;;;;12.60;58.03;99945.66;4960078;28;97748;-73
2023/12/31 04:18:12;;;;;;;2.13;1.58;;;;;;;12.59;57.81;99935.88;4960638;28;96743;-73
2023/12/31 04:20:39;;;;;;;1.90;1.10;;;;;;;12.58;58.06;99926.09;4971938;28;97359;-74
2023/12/31 04:23:05;;;;;;;2.03;1.15;;;;;;;12.57;57.92;99935.16;4975913;28;100315;-74
2023/12/31 04:25:32;;;;;;;1.83;1.20;;;;;;;12.58;57.73;99919.84;4960893;28;97897;-73
2023/12/31 04:27:59;;;;;;;1.30;1.10;;;;;;;12.59;57.90;99918.84;4974493;28;97408;-73
2023/12/31 04:30:26;;;;;;;2.03;1.40;;;;;;;12.59;57.78;99917.00;4949739;28;97351;-72
2023/12/31 04:32:53;;;;;;;2.15;1.20;;;;;;;12.59;57.63;99911.63;4977211;28;99874;-73
2023/12/31 04:35:20;;;;;;;2.22;1.45;;;;;;;12.59;57.83;99902.69;4962388;28;98216;-74
2023/12/31 04:37:46;;;;;;;1.60;1.20;;;;;;;12.59;57.75;99905.38;4963485;28;97125;-74
2023/12/31 04:40:14;;;;;;;2.75;1.65;;;;;;;12.58;57.36;99885.69;4962036;28;97860;-74
2023/12/31 04:42:41;;;;;;;2.00;1.40;;;;;;;12.58;57.81;99892.91;4958419;28;97631;-74
2023/12/31 04:45:09;;;;;;;2.03;1.33;;;;;;;12.59;57.60;99873.91;4961414;28;97671;-73
2023/12/31 04:47:37;;;;;;;4.43;1.52;;;;;;;12.58;57.47;99868.66;4965162;28;97348;-75
2023/12/31 04:50:05;;;;;;;2.03;1.42;;;;;;;12.57;57.26;99866.97;4966723;28;97014;-75
2023/12/31 04:52:32;;;;;;;3.13;1.10;;;;;;;12.56;57.81;99866.13;4978426;28;98062;-73
2023/12/31 04:54:59;;;;;;;2.95;1.40;;;;;;;12.57;57.58;99851.66;4963115;28;97498;-73
2023/12/31 04:57:26;;;;;;;1.50;1.40;;;;;;;12.58;57.39;99855.22;4961225;28;97277;-74
2023/12/31 04:59:53;;;;;;;3.03;1.38;;;;;;;12.58;57.48;99850.66;4959800;28;97741;-74
2023/12/31 05:02:21;;;;;;;2.67;1.45;;;;;;;12.58;57.58;99842.59;4968802;28;98582;-73
2023/12/31 05:04:48;;;;;;;1.92;1.40;;;;;;;12.58;57.52;99839.91;4964655;28;97648;-74
2023/12/31 05:07:14;;;;;;;1.67;1.58;;;;;;;12.57;57.56;99834.66;4961104;28;97383;-73
2023/12/31 05:09:41;;;;;;;4.63;1.63;;;;;;;12.55;57.19;99834.81;4961956;28;97305;-74
2023/12/31 05:12:08;;;;;;;3.33;1.80;;;;;;;12.56;57.56;99836.50;4961474;28;97641;-74
2023/12/31 05:14:34;;;;;;;1.95;1.35;;;;;;;12.55;57.62;99829.41;4958859;28;97587;-73
2023/12/31 05:17:01;;;;;;;2.28;1.52;;;;;;;12.54;57.06;99811.56;4961287;28;97324;-74
2023/12/31 05:19:28;;;;;;;1.80;1.20;;;;;;;12.56;57.24;99814.09;4957683;28;97581;-74
2023/12/31 05:21:55;;;;;;;1.50;1.13;;;;;;;12.55;57.58;99799.78;4963160;28;98107;-74
2023/12/31 05:24:22;;;;;;;3.55;1.60;;;;;;;12.55;57.05;99802.47;4960304;28;97798;-73
2023/12/31 05:26:49;;;;;;;2.05;1.63;;;;;;;12.55;57.24;99805.19;4962128;28;96856;-75
2023/12/31 05:29:15;;;;;;;3.38;1.77;;;;;;;12.56;57.08;99796.09;4960420;28;97781;-74
2023/12/31 05:31:42;;;;;;;3.13;1.48;;;;;;;12.58;57.16;99786.03;4965000;28;97921;-73
2023/12/31 05:34:09;;;;;;;2.30;1.70;;;;;;;12.60;57.30;99784.03;4992329;28;98842;-74
2023/12/31 05:36:35;;;;;;;2.53;1.40;;;;;;;12.62;57.37;99779.34;4946527;28;98348;-75
2023/12/31 05:39:02;;;;;;;2.42;1.95;;;;;;;12.62;57.09;99779.34;4965031;28;98194;-74
2023/12/31 05:41:29;;;;;;;2.50;1.75;;;;;;;12.65;57.09;99778.22;4961993;28;98358;-75
2023/12/31 05:43:56;;;;;;;2.60;1.80;;;;;;;12.66;57.13;99772.69;4989126;28;98374;-73
2023/12/31 05:46:23;;;;;;;2.03;1.83;;;;;;;12.68;57.30;99770.69;4963597;28;97218;-73
2023/12/31 05:48:50;;;;;;;3.35;2.10;;;;;;;12.71;57.20;99770.41;4962685;28;97024;-74
2023/12/31 05:51:17;;;;;;;2.20;1.88;;;;;;;12.72;57.27;99739.78;4964746;28;98316;-74
2023/12/31 05:53:43;;;;;;;2.35;1.80;;;;;;;12.74;57.12;99734.25;4961869;28;98089;-74
2023/12/31 05:56:10;;;;;;;2.72;1.70;;;;;;;12.78;57.01;99740.16;4957288;28;97751;-73
2023/12/31 05:58:37;;;;;;;1.80;1.60;;;;;;;12.79;57.17;99733.78;4961395;28;97287;-73
2023/12/31 06:01:04;;;;;;;2.90;2.00;;;;;;;12.82;56.97;99733.50;4977031;28;98341;-73
2023/12/31 06:03:31;;;;;;;3.15;1.80;;;;;;;12.84;57.03;99734.19;4961393;28;99672;-74
2023/12/31 06:05:57;;;;;;;2.63;1.98;;;;;;;12.86;57.18;99724.94;4963911;28;97349;-74
2023/12/31 06:08:24;;;;;;;2.38;1.92;;;;;;;12.89;57.11;99710.31;4963320;28;97329;-72
2023/12/31 06:10:51;;;;;;;3.80;2.05;;;;;;;12.91;57.20;99716.41;4961963;28;97826;-74
2023/12/31 06:13:18;;;;;;;3.25;2.05;;;;;;;12.91;57.16;99711.88;4963474;28;97717;-72
2023/12/31 06:15:44;;;;;;;2.15;1.85;;;;;;;12.94;57.18;99716.09;4963715;28;97109;-77
2023/12/31 06:18:14;;;;;;;2.33;2.08;;;;;;;12.95;57.28;99712.41;4960195;28;97310;-75
2023/12/31 06:20:41;;;;;;;3.17;2.00;;;;;;;12.96;56.98;99696.09;4962758;28;97559;-76
2023/12/31 06:23:07;;;;;;;3.28;2.13;;;;;;;12.95;56.88;99697.09;4962109;28;97758;-77
2023/12/31 06:25:34;;;;;;;3.60;2.55;;;;;;;12.96;57.20;99695.25;4963112;28;96950;-77
2023/12/31 06:28:01;;;;;;;2.45;1.95;;;;;;;12.95;57.23;99707.88;4962830;28;97046;-74
2023/12/31 06:30:27;;;;;;;2.28;1.98;;;;;;;12.96;56.86;99695.25;4961000;28;97519;-72
2023/12/31 06:32:54;;;;;;;4.55;1.90;;;;;;;12.95;56.97;99685.47;4986950;28;97640;-73
2023/12/31 06:35:21;;;;;;;2.67;2.40;;;;;;;12.96;56.81;99679.06;4955066;28;96985;-74
2023/12/31 06:37:47;;;;;;;3.30;2.00;;;;;;;12.95;56.93;99677.38;4963947;28;97148;-74
2023/12/31 06:40:14;;;;;;;2.70;2.33;;;;;;;12.93;56.74;99669.44;4961439;28;100018;-73
2023/12/31 06:42:41;;;;;;;2.65;2.17;;;;;;;12.92;57.15;99670.44;4963864;28;98145;-75
2023/12/31 06:45:08;;;;;;;3.55;2.03;;;;;;;12.91;56.92;99657.97;4962578;28;97191;-74
2023/12/31 06:47:35;;;;;;;2.53;2.13;;;;;;;12.89;56.77;99656.44;4964235;28;97144;-74
2023/12/31 06:50:02;;;;;;;3.08;2.30;;;;;;;12.86;57.23;99649.50;4963633;28;97784;-74
2023/12/31 06:52:28;;;;;;;3.05;2.60;;;;;;;12.86;57.10;99648.66;4959096;28;100159;-74
2023/12/31 06:54:56;;;;;;;3.78;2.67;;;;;;;12.85;57.14;99655.03;4991565;28;96958;-73
2023/12/31 06:57:22;;;;;;;2.58;2.38;;;;;;;12.83;56.89;99639.03;4995644;28;97158;-73
2023/12/31 06:59:49;;;;;;;3.90;2.30;;;;;;;12.83;57.10;99647.13;4978221;28;98251;-75
2023/12/31 07:02:15;;;;;;;3.53;2.80;;;;;;;12.82;56.92;99642.72;4995976;28;97705;-75
2023/12/31 07:04:42;;;;;;;3.17;2.45;;;;;;;12.81;56.96;99626.72;4960865;28;96928;-73
2023/12/31 07:07:09;;;;;;;4.53;2.50;;;;;;;12.80;57.01;99625.88;4963872;28;97333;-75
2023/12/31 07:09:35;;;;;;;3.78;2.80;;;;;;;12.80;57.09;99614.25;4955939;28;98079;-74
2023/12/31 07:12:03;;;;;;;3.17;2.60;;;;;;;12.79;57.27;99608.00;4960633;28;98330;-74
2023/12/31 07:14:29;;;;;;;3.47;2.65;;;;;;;12.80;57.20;99603.47;4944705;28;97041;-74
2023/12/31 07:16:56;;;;;;;2.95;2.70;;;;;;;12.79;57.30;99604.47;4963022;28;97312;-73
2023/12/31 07:19:23;;;;;;;2.97;2.53;;;;;;;12.79;57.12;99612.56;4960639;28;97622;-73
2023/12/31 07:21:50;;;;;;;3.85;2.72;;;;;;;12.79;57.07;99604.47;4962082;28;97535;-74
2023/12/31 07:24:16;;;;;;;3.53;2.78;;;;;;;12.79;57.16;99601.78;4965338;28;97144;-75
2023/12/31 07:26:43;;;;;;;3.53;2.70;;;;;;;12.79;57.35;99601.78;4963589;28;97291;-75
2023/12/31 07:29:10;;;;;;;3.63;2.50;;;;;;;12.79;57.08;99588.31;4957400;28;97895;-72
2023/12/31 07:31:38;;;;;;;4.43;2.90;;;;;;;12.80;57.05;99588.16;4962568;28;97836;-74
2023/12/31 07:34:06;;;;;;;4.22;3.25;;;;;;;12.80;57.21;99585.47;4961189;28;97464;-75
2023/12/31 07:36:33;;;;;;;3.63;2.90;;;;;;;12.83;57.24;99592.38;4963363;28;97263;-76
2023/12/31 07:39:00;;;;;;;4.05;2.63;;;;;;;12.83;57.35;99590.53;4969935;28;98479;-73
2023/12/31 07:41:27;;;;;;;3.72;2.80;;;;;;;12.85;57.08;99582.31;4955775;28;98040;-73
2023/12/31 07:43:54;;;;;;;4.20;3.10;;;;;;;12.86;57.47;99579.44;4962216;28;97026;-73
2023/12/31 07:46:22;;;;;;;3.67;2.80;;;;;;;12.86;57.15;99574.06;4956335;28;97108;-73
2023/12/31 07:48:49;;;;;;;3.70;3.00;;;;;;;12.88;57.38;99571.22;4990639;28;98022;-74
2023/12/31 07:51:18;;;;;;;3.28;2.65;;;;;;;12.90;57.05;99572.75;4957903;28;98303;-74
2023/12/31 07:53:45;;;;;;;6.72;2.75;;;;;;;12.91;57.42;99563.66;4959617;28;96891;-74
2023/12/31 07:56:12;;;;;;;7.80;3.53;;;;;;;12.93;57.04;99568.91;4959682;28;96954;-74
2023/12/31 07:58:38;;;;;;;7.93;3.00;;;;;;;12.95;57.27;99567.75;4960913;28;97866;-74
2023/12/31 08:01:05;;;;;;;3.90;2.97;;;;;;;12.98;57.06;99551.25;4961957;28;98131;-74
2023/12/31 08:03:32;;;;;;;4.13;2.75;;;;;;;13.00;57.34;99560.03;4959108;28;96810;-74
2023/12/31 08:05:58;;;;;;;4.88;2.90;;;;;;;13.02;57.34;99555.34;4974355;28;97119;-73
2023/12/31 08:08:26;;;;;;;3.95;2.88;;;;;;;13.03;57.35;99542.72;4959498;28;97462;-73
2023/12/31 08:10:53;;;;;;;4.45;2.83;;;;;;;13.07;57.34;99543.25;4961471;28;98000;-74
2023/12/31 08:13:20;;;;;;;2.75;2.40;;;;;;;13.08;57.29;99523.38;4960930;28;97119;-73
2023/12/31 08:15:47;;;;;;;3.78;2.83;;;;;;;13.11;56.96;99523.91;4961474;28;97318;-74
2023/12/31 08:18:14;;;;;;;3.75;2.65;;;;;;;13.14;57.33;99523.59;4979131;28;97150;-74
2023/12/31 08:20:41;;;;;;;3.95;2.80;;;;;;;13.17;57.18;99525.16;4974166;28;99786;-74
2023/12/31 08:23:07;;;;;;;3.45;2.70;;;;;;;13.18;57.16;99519.59;4960387;28;97280;-75
2023/12/31 08:25:34;;;;;;;2.75;2.53;;;;;;;13.21;57.03;99518.44;4960255;28;96888;-73
2023/12/31 08:28:01;;;;;;;3.55;2.70;;;;;;;13.24;57.04;99515.44;4960850;28;97698;-72
2023/12/31 08:30:28;;;;;;;5.82;2.75;;;;;;;13.27;56.77;99512.41;4957323;28;98549;-74
2023/12/31 08:32:54;;;;;;;3.50;2.83;;;;;;;13.30;57.18;99515.63;4946160;28;97554;-75
2023/12/31 08:35:23;;;;;;;3.70;3.00;;;;;;;13.32;56.77;99516.31;4960677;28;98319;-74
2023/12/31 08:37:50;;;;;;;4.20;3.10;;;;;;;13.34;56.99;99517.00;4958962;28;97719;-73
2023/12/31 08:40:19;;;;;;;3.88;2.60;;;;;;;13.35;56.98;99507.06;4959645;28;97799;-74
2023/12/31 08:42:46;;;;;;;4.63;2.78;;;;;;;13.36;57.03;99496.13;4973885;28;97185;-74
2023/12/31 08:45:14;;;;;;;3.50;3.00;;;;;;;13.36;56.87;99504.22;4960189;28;97771;-73
2023/12/31 08:47:41;;;;;;;3.03;2.60;;;;;;;13.36;57.05;99492.59;4960759;28;97646;-72
2023/12/31 08:50:09;;;;;;;3.78;2.97;;;;;;;13.39;56.66;99504.94;4957997;28;99777;-73
2023/12/31 08:52:45;;;;;;;3.83;3.03;;;;;;;13.40;56.88;99494.00;4958923;28;97147;-73
2023/12/31 08:55:13;;;;;;;3.83;3.20;;;;;;;13.43;57.06;99482.88;4954703;28;98509;-73
2023/12/31 08:57:46;;;;;;;4.50;3.55;;;;;;;13.43;56.77;99487.44;4958095;28;98400;-74
2023/12/31 09:00:14;;;;;;;4.18;3.40;;;;;;;13.44;56.88;99487.28;4969078;28;98321;-74
2023/12/31 09:02:41;;;;;;;4.53;3.28;;;;;;;13.45;57.09;99480.88;4957902;28;97631;-73
2023/12/31 09:05:08;;;;;;;3.45;3.15;;;;;;;13.46;56.65;99479.00;4964235;28;97661;-74
2023/12/31 09:07:35;;;;;;;4.93;3.30;;;;;;;13.48;56.64;99483.25;4962141;28;98119;-74
2023/12/31 09:10:07;;;;;;;3.22;2.92;;;;;;;13.48;56.90;99487.78;4989150;28;97469;-73
2023/12/31 09:12:34;;;;;;;3.85;3.45;;;;;;;13.50;57.10;99494.72;4960184;28;96919;-74
2023/12/31 09:15:00;;;;;;;4.82;3.42;;;;;;;13.50;56.79;99488.47;4963297;28;97337;-72
2023/12/31 09:17:27;;;;;;;4.25;3.20;;;;;;;13.50;57.07;99488.47;4961685;28;97868;-72
2023/12/31 09:19:57;;;;;;;3.95;3.40;;;;;;;13.50;56.89;99483.09;4965612;28;98609;-73
2023/12/31 09:22:25;;;;;;;5.53;3.58;;;;;;;13.51;57.11;99487.47;4961608;28;97053;-74
2023/12/31 09:24:52;;;;;;;4.90;3.20;;;;;;;13.51;57.32;99492.88;4959044;28;97333;-74
2023/12/31 09:27:19;;;;;;;3.80;3.40;;;;;;;13.51;57.14;99477.53;4963383;28;98082;-74
2023/12/31 09:29:46;;;;;;;4.18;3.42;;;;;;;13.52;57.24;99502.66;4961474;28;97643;-73
2023/12/31 09:32:13;;;;;;;3.88;3.30;;;;;;;13.53;57.42;99512.44;4962081;28;97418;-75
2023/12/31 09:34:40;;;;;;;4.03;3.30;;;;;;;13.54;57.21;99500.63;4963933;28;97479;-75
2023/12/31 09:37:07;;;;;;;3.80;2.97;;;;;;;13.51;57.32;99509.91;4963396;28;97638;-74
2023/12/31 09:39:35;;;;;;;4.57;2.70;;;;;;;13.48;57.31;99526.41;4963332;28;97245;-75
2023/12/31 09:42:19;;;;;;;4.43;3.08;;;;;;;13.42;57.65;99526.19;4960848;28;97136;-73
2023/12/31 09:44:46;;;;;;;3.25;2.95;;;;;;;13.38;57.86;99524.78;4963540;28;96861;-74
2023/12/31 09:47:14;;;;;;;3.53;2.67;;;;;;;13.36;57.95;99539.28;4962476;28;98485;-74
2023/12/31 09:49:43;;;;;;;3.83;3.40;;;;;;;13.34;58.22;99540.44;4962777;28;97628;-74
2023/12/31 09:52:10;;;;;;;4.95;3.15;;;;;;;13.31;58.22;99536.19;4989524;28;97307;-75
2023/12/31 09:54:40;;;;;;;3.13;2.80;;;;;;;13.26;58.04;99535.00;4979084;28;97318;-76
2023/12/31 09:57:08;;;;;;;4.35;2.88;;;;;;;13.23;58.41;99548.78;4962895;28;97740;-74
2023/12/31 09:59:42;;;;;;;2.00;1.80;;;;;;;13.22;58.41;99564.13;4944808;28;98086;-74
2023/12/31 10:02:17;;;;;;;2.85;1.65;;;;;;;13.18;58.60;99562.75;4961958;28;96918;-75
2023/12/31 10:04:44;;;;;;;3.60;1.50;;;;;;;13.16;58.69;99558.47;4962218;28;98431;-74
2023/12/31 10:07:12;;;;;;;2.08;1.88;;;;;;;13.08;58.57;99570.03;4958936;28;100721;-73
2023/12/31 10:09:42;;;;;;;4.63;1.48;;;;;;;13.01;58.84;99572.50;4961812;28;99741;-73
2023/12/31 10:12:10;;;;;;;2.05;1.08;;;;;;;12.95;58.58;99558.81;4963388;28;97087;-75
2023/12/31 10:14:37;;;;;;;2.60;1.30;;;;;;;12.88;58.65;99560.44;4962316;28;97432;-75
2023/12/31 10:17:07;;;;;;;1.38;1.00;;;;;;;12.83;58.58;99557.34;4975584;28;97907;-73
2023/12/31 10:19:34;;;;;;;3.10;1.10;;;;;;;12.77;58.70;99571.44;4962797;28;97847;-73
2023/12/31 10:22:05;;;;;;;2.15;0.80;;;;;;;12.71;58.79;99579.16;4964720;28;97951;-74
2023/12/31 10:24:31;;;;;;;1.67;0.98;;;;;;;12.63;58.88;99557.50;4959445;28;97588;-75
2023/12/31 10:27:04;;;;;;;1.80;0.90;;;;;;;12.59;58.84;99544.47;4963002;28;97690;-74
2023/12/31 10:29:32;;;;;;;1.65;0.80;;;;;;;12.54;59.17;99536.84;4960932;28;99799;-73
2023/12/31 10:32:01;;;;;;;0.93;0.77;;;;;;;12.51;59.21;99522.84;4961093;28;97204;-74
2023/12/31 10:34:28;;;;;;;3.88;1.38;;;;;;;12.50;59.19;99532.78;4962132;28;97033;-73
2023/12/31 10:37:07;;;;;;;2.10;0.85;;;;;;;12.49;59.43;99528.41;4959788;28;96933;-75
2023/12/31 10:39:38;;;;;;;1.48;1.00;;;;;;;12.52;59.46;99538.88;4966523;28;97734;-75
2023/12/31 10:42:06;;;;;;;2.05;1.20;;;;;;;12.56;59.65;99539.41;4964921;28;97171;-76
2023/12/31 10:44:38;;;;;;;1.40;1.13;;;;;;;12.59;59.69;99533.72;4945491;28;97230;-74
2023/12/31 10:47:06;;;;;;;2.42;1.30;;;;;;;12.62;59.59;99539.63;4963592;28;97942;-75
2023/12/31 10:49:34;;;;;;;1.65;1.38;;;;;;;12.65;59.79;99522.34;4959279;28;100337;-77
2023/12/31 10:52:03;;;;;;;3.33;1.88;;;;;;;12.71;59.83;99524.41;4978308;28;97313;-76
2023/12/31 10:54:38;;;;;;;2.33;2.00;;;;;;;12.78;59.85;99540.81;4963713;28;97167;-73
2023/12/31 10:57:06;;;;;;;3.15;2.00;;;;;;;12.83;60.00;99525.88;4955059;28;98276;-75
2023/12/31 10:59:34;;;;;;;3.20;1.83;;;;;;;12.86;59.97;99519.31;4961110;28;100162;-77
2023/12/31 11:02:04;;;;;;;2.67;2.00;;;;;;;12.88;60.26;99522.72;4978911;28;97596;-75
2023/12/31 11:04:31;;;;;;;2.83;1.60;;;;;;;12.91;60.27;99517.00;4961894;28;97455;-74
2023/12/31 11:07:03;;;;;;;2.25;1.55;;;;;;;12.94;59.83;99508.63;4962573;28;98397;-77
2023/12/31 11:09:33;;;;;;;4.00;2.33;;;;;;;12.99;59.78;99527.84;4993057;28;98444;-77
2023/12/31 11:12:01;;;;;;;3.90;2.83;;;;;;;13.02;60.10;99533.78;4963095;28;97844;-75
2023/12/31 11:14:32;;;;;;;4.05;2.60;;;;;;;13.03;59.83;99522.00;4963042;28;97752;-73
2023/12/31 11:17:22;;;;;;;3.40;1.98;;;;;;;13.08;60.07;99523.38;4963958;28;98357;-77
2023/12/31 11:20:30;;;;;;;2.20;1.40;;;;;;;13.11;59.86;99520.34;4973812;28;97917;-76
2023/12/31 11:23:25;;;;;;;4.80;2.50;;;;;;;13.11;60.00;99505.03;4962988;28;97236;-76
2023/12/31 11:25:52;;;;;;;5.28;2.47;;;;;;;13.11;59.73;99507.72;4955281;28;97299;-76
2023/12/31 11:28:19;;;;;;;4.25;2.60;;;;;;;13.11;59.82;99506.88;4960858;28;97739;-77
2023/12/31 11:30:58;;;;;;;4.30;2.50;;;;;;;13.10;59.84;99522.22;4946177;28;96951;-76